Raleigh, NC (27603)

1:16 PM EDT op 25 mei 2015 (GMT -0400)
Heather Hills | | Change Station
CLOSE
Current Station
Persoonlijk weerstation
Location: Garner, NC
Geometrische hoogte: 361 ft
Nabije weerstations

Hoogte 361 ft 35.70 °N, 78.62 °W | Updated 13 minutes ago

Helder
Helder
82.0 °F
Voelt als 82 °F
N
0.0
Wind Variabel Wind van OZO

Vandaag
Hoog -- | Laag -- °F
--% Kans op neerslag
Gisteren
Hoog -- | Laag -- °F
Precip. -- inches
6:03 AM 8:20 PM
Wassende halvemaan, 50% visible
Druk 30.31 inches
Zicht 10.0 mijlen
Wolken Gering 5500 ft
Licht bewolkt 25000 ft
Warmteindex 82 °F
Dauwpunt 57 °F
Vochtigheid 43%
Neerslag inches
Dikte sneeuw Niet beschikbaar.
UV 10 van de 12
Pollen 7.90 van de 12
Luchtkwaliteit Niet beschikbaar.
Flu Activity No Activity
METAR KRDU 251651Z 19008G15KT 10SM FEW055 SCT250 27/13 A3032 RMK AO2 SLP264 T02670128 $

More Conditions Fewer Conditions

Druk 30.31 inches
Zicht 10.0 mijlen
Wolken Gering 5500 ft
Licht bewolkt 25000 ft
Warmteindex 82 °F
Dauwpunt 57 °F
Vochtigheid 43%
Neerslag inches
Dikte sneeuw Niet beschikbaar.
UV 10 van de 12
Pollen 7.90 van de 12
Luchtkwaliteit Niet beschikbaar.
Flu Activity No Activity
METAR KRDU 251651Z 19008G15KT 10SM FEW055 SCT250 27/13 A3032 RMK AO2 SLP264 T02670128 $

More Conditions Fewer Conditions

10-Day Weather Forecast

Almanac

Astronomie

May. 25, 2015 Opkomst Ondergang
Werkelijke tijd
Burgerlijke schemering
Nautische schemering
Astronomische schemering
Maan
Golflengte van het zichtbare licht
Daglengte
Tomorrow will be .
, % of the Moon is Illuminated

Extremen vandaag

State Highs State Lows

Community

WunderPhotos

Upload Photos

1,824,063 foto’s ge-upload!

WunderBlogs® & News

Nearby

Luchtkwaliteit

  Luchtkwaliteit LK-index Verontreinigende stof
Not available.

Dikte sneeuw

Station Depth Geometrische hoogte

Aardbevingen

Stad Distance Mag. Time & Date
Minimum magnitude displayed is 2.5.

Watertemperatuur langs de kust

Plaats Temperatuur

Stations

Nabije weerstations

Locatie station Temp. Gevoelstemperatuur Dauwpunt Vochtigheid Wind Precip. Hoogte Geactualiseerd Type